createdAt,value
2019-05-23T00:01:04.243Z,16.60
2019-05-23T00:04:40.251Z,16.60
2019-05-23T00:08:19.253Z,16.40
2019-05-23T00:11:43.254Z,16.41
2019-05-23T00:14:56.265Z,15.79
2019-05-23T00:18:05.257Z,16.36
2019-05-23T00:21:14.616Z,16.61
2019-05-23T00:24:24.254Z,16.77
2019-05-23T00:27:33.245Z,16.68
2019-05-23T00:31:06.252Z,15.94
2019-05-23T00:34:15.918Z,16.32
2019-05-23T00:37:25.244Z,16.43
2019-05-23T00:40:34.266Z,16.46
2019-05-23T00:43:42.605Z,16.42
2019-05-23T00:46:51.253Z,16.30
2019-05-23T00:49:59.692Z,16.30
2019-05-23T00:53:08.451Z,16.25
2019-05-23T00:56:16.042Z,16.26
2019-05-23T00:59:27.490Z,16.11
2019-05-23T01:02:35.481Z,15.65
2019-05-23T01:05:43.488Z,15.93
2019-05-23T01:08:52.240Z,15.89
2019-05-23T01:12:00.413Z,15.83
2019-05-23T01:15:07.528Z,15.88
2019-05-23T01:18:17.687Z,15.67
2019-05-23T01:21:53.525Z,15.40
2019-05-23T01:25:03.602Z,15.21
2019-05-23T01:28:11.731Z,15.28
2019-05-23T01:31:22.629Z,15.28
2019-05-23T01:34:31.241Z,15.00
2019-05-23T01:37:39.689Z,15.00
2019-05-23T01:40:48.584Z,14.94
2019-05-23T01:43:56.507Z,14.83
2019-05-23T01:47:06.254Z,14.97
2019-05-23T01:50:16.246Z,14.97
2019-05-23T01:53:25.069Z,14.92
2019-05-23T01:56:33.004Z,14.78
2019-05-23T01:59:42.071Z,14.63
2019-05-23T02:02:51.255Z,14.66
2019-05-23T02:05:59.725Z,14.65
2019-05-23T02:09:09.604Z,14.65
2019-05-23T02:12:18.257Z,14.60
2019-05-23T02:15:27.532Z,14.60
2019-05-23T02:18:35.576Z,14.53
2019-05-23T02:21:45.071Z,14.56
2019-05-23T02:24:53.573Z,14.56
2019-05-23T02:28:02.559Z,14.43
2019-05-23T02:31:11.568Z,14.44
2019-05-23T02:34:19.752Z,14.22
2019-05-23T02:37:45.543Z,14.22
2019-05-23T02:40:58.242Z,14.01
2019-05-23T02:44:13.079Z,14.01
2019-05-23T02:47:30.541Z,14.22
2019-05-23T02:50:50.256Z,14.19
2019-05-23T02:53:58.755Z,14.19
2019-05-23T02:57:08.226Z,14.04
2019-05-23T03:00:56.518Z,14.04
2019-05-23T03:04:08.247Z,13.88
2019-05-23T03:07:18.754Z,13.88
2019-05-23T03:10:28.586Z,13.90
2019-05-23T03:13:38.281Z,13.99
2019-05-23T03:16:46.518Z,14.08
2019-05-23T03:19:58.244Z,14.08
2019-05-23T03:23:13.236Z,14.08
2019-05-23T03:27:17.249Z,13.91
2019-05-23T03:30:29.525Z,14.10
2019-05-23T03:33:38.658Z,14.18
2019-05-23T03:36:46.621Z,14.18
2019-05-23T03:39:55.563Z,14.22
2019-05-23T03:43:04.026Z,14.35
2019-05-23T03:46:14.248Z,14.35
2019-05-23T03:49:22.537Z,14.32
2019-05-23T03:52:32.258Z,14.43
2019-05-23T03:55:42.259Z,14.43
2019-05-23T03:58:51.224Z,14.63
2019-05-23T04:02:01.772Z,14.76
2019-05-23T04:05:11.694Z,14.76
2019-05-23T04:08:21.173Z,14.90
2019-05-23T04:11:29.742Z,14.93
2019-05-23T04:14:37.713Z,14.81
2019-05-23T04:17:46.240Z,15.20
2019-05-23T04:20:55.915Z,15.28
2019-05-23T04:24:05.248Z,15.52
2019-05-23T04:27:14.260Z,15.53
2019-05-23T04:30:23.522Z,15.71
2019-05-23T04:33:32.022Z,15.95
2019-05-23T04:36:39.869Z,15.95
2019-05-23T04:39:48.037Z,16.21
2019-05-23T04:42:56.012Z,16.37
2019-05-23T04:46:04.583Z,16.50
2019-05-23T04:49:16.015Z,16.68
2019-05-23T04:52:24.275Z,16.91
2019-05-23T04:55:32.907Z,16.93
2019-05-23T04:58:41.594Z,17.04
2019-05-23T05:01:51.260Z,17.07
2019-05-23T05:05:00.485Z,17.07
2019-05-23T05:08:08.612Z,17.40
2019-05-23T05:11:16.538Z,17.74
2019-05-23T05:14:24.932Z,17.93
2019-05-23T05:17:33.611Z,17.93
2019-05-23T05:20:42.237Z,18.30
2019-05-23T05:23:50.348Z,18.30
2019-05-23T05:26:57.369Z,18.45
2019-05-23T05:30:05.730Z,18.84
2019-05-23T05:33:13.595Z,18.93
2019-05-23T05:36:22.233Z,19.72
2019-05-23T05:39:30.736Z,19.72
2019-05-23T05:42:39.697Z,20.32
2019-05-23T05:45:48.080Z,20.43
2019-05-23T05:48:57.228Z,20.45
2019-05-23T05:52:07.626Z,20.56
2019-05-23T05:55:15.707Z,20.84
2019-05-23T05:58:24.509Z,21.93
2019-05-23T06:01:34.372Z,21.54
2019-05-23T06:04:40.630Z,22.19
2019-05-23T06:07:47.361Z,22.50
2019-05-23T06:10:54.772Z,22.91
2019-05-23T06:14:01.485Z,20.90
2019-05-23T06:17:10.418Z,23.47
2019-05-23T06:20:17.469Z,23.29
2019-05-23T06:23:24.257Z,23.45
2019-05-23T06:26:31.351Z,24.36
2019-05-23T06:29:38.637Z,25.36
2019-05-23T06:32:46.365Z,25.22
2019-05-23T06:35:55.045Z,26.24
2019-05-23T06:39:02.826Z,26.05
2019-05-23T06:42:10.592Z,27.19
2019-05-23T06:45:18.447Z,28.04
2019-05-23T06:48:25.401Z,28.59
2019-05-23T06:51:33.027Z,29.08
2019-05-23T06:54:40.953Z,29.80
2019-05-23T06:57:47.857Z,29.80
2019-05-23T07:00:54.643Z,30.82
2019-05-23T07:04:01.548Z,30.66
2019-05-23T07:07:09.417Z,29.70
2019-05-23T07:10:17.026Z,28.20
2019-05-23T07:13:24.664Z,28.61
2019-05-23T07:16:31.417Z,29.16
2019-05-23T07:19:39.562Z,29.67
2019-05-23T07:22:46.588Z,28.48
2019-05-23T07:25:53.954Z,29.46
2019-05-23T07:29:01.127Z,29.68
2019-05-23T07:32:08.485Z,29.08
2019-05-23T07:35:15.318Z,29.88
2019-05-23T07:38:22.273Z,29.53
2019-05-23T07:41:29.242Z,30.69
2019-05-23T07:44:47.984Z,31.60
2019-05-23T07:47:45.500Z,29.11
2019-05-23T07:50:52.476Z,27.80
2019-05-23T07:54:22.991Z,27.80
2019-05-23T07:57:29.755Z,28.59
2019-05-23T08:00:43.072Z,28.34
2019-05-23T08:03:51.524Z,28.34
2019-05-23T08:06:58.780Z,27.88
2019-05-23T08:10:07.096Z,27.30
2019-05-23T08:13:14.241Z,27.30
2019-05-23T08:16:21.245Z,27.27
2019-05-23T08:19:28.249Z,27.21
2019-05-23T08:22:35.100Z,29.33
2019-05-23T08:25:42.453Z,27.21
2019-05-23T08:29:12.869Z,28.11
2019-05-23T08:31:58.918Z,28.28
2019-05-23T08:35:06.495Z,29.50
2019-05-23T08:38:13.686Z,26.47
2019-05-23T08:41:21.010Z,29.45
2019-05-23T08:44:27.819Z,29.45
2019-05-23T08:47:37.033Z,27.88
2019-05-23T08:50:46.072Z,28.29
2019-05-23T08:53:53.481Z,28.52
2019-05-23T08:57:00.984Z,28.99
2019-05-23T09:00:10.989Z,28.89
2019-05-23T09:03:18.385Z,29.01
2019-05-23T09:06:25.415Z,29.05
2019-05-23T09:09:33.142Z,29.99
2019-05-23T09:12:41.786Z,27.09
2019-05-23T09:15:52.736Z,26.27
2019-05-23T09:18:57.527Z,28.77
2019-05-23T09:22:06.280Z,28.94
2019-05-23T09:25:14.034Z,29.28
2019-05-23T09:28:21.251Z,29.53
2019-05-23T09:31:29.560Z,32.75
2019-05-23T09:34:37.334Z,29.15
2019-05-23T09:37:44.381Z,30.19
2019-05-23T09:40:51.482Z,28.54
2019-05-23T09:43:58.412Z,29.67
2019-05-23T09:47:05.482Z,30.29
2019-05-23T09:50:14.279Z,30.92
2019-05-23T09:53:21.602Z,28.43
2019-05-23T09:56:29.100Z,28.20
2019-05-23T09:59:35.984Z,28.20
2019-05-23T10:02:42.667Z,30.33
2019-05-23T10:05:49.433Z,32.40
2019-05-23T10:08:57.544Z,33.09
2019-05-23T10:12:04.358Z,33.09
2019-05-23T10:15:15.973Z,28.70
2019-05-23T10:21:47.075Z,27.89
2019-05-23T10:24:54.266Z,30.00
2019-05-23T10:28:01.415Z,27.63
2019-05-23T10:31:10.251Z,29.63
2019-05-23T10:34:17.625Z,29.49
2019-05-23T10:37:25.380Z,31.38
2019-05-23T10:40:32.485Z,31.38
2019-05-23T10:43:40.567Z,31.90
2019-05-23T10:46:47.451Z,29.00
2019-05-23T10:49:54.399Z,30.99
2019-05-23T10:53:01.286Z,29.06
2019-05-23T10:56:09.674Z,28.79
2019-05-23T10:59:16.464Z,29.95
2019-05-23T11:02:26.888Z,28.98
2019-05-23T11:05:32.525Z,29.05
2019-05-23T11:08:39.689Z,30.79
2019-05-23T11:11:46.707Z,31.32
2019-05-23T11:14:54.386Z,29.58
2019-05-23T11:18:01.600Z,29.58
2019-05-23T11:21:08.415Z,31.10
2019-05-23T11:24:16.225Z,32.77
2019-05-23T11:27:23.645Z,32.66
2019-05-23T11:30:45.873Z,33.30
2019-05-23T11:33:52.834Z,33.30
2019-05-23T11:36:59.833Z,30.72
2019-05-23T11:40:06.570Z,33.47
2019-05-23T11:43:13.472Z,35.29
2019-05-23T11:46:24.314Z,34.41
2019-05-23T11:49:31.287Z,31.37
2019-05-23T11:52:38.648Z,30.37
2019-05-23T11:55:45.568Z,30.34
2019-05-23T11:58:54.570Z,32.08
2019-05-23T12:02:11.382Z,33.47
2019-05-23T12:05:22.999Z,33.88
2019-05-23T12:08:30.667Z,34.82
2019-05-23T12:11:42.507Z,32.13
2019-05-23T12:14:47.272Z,30.09
2019-05-23T12:17:54.471Z,31.06
2019-05-23T12:21:01.437Z,33.33
2019-05-23T12:24:08.433Z,30.95
2019-05-23T12:27:15.645Z,32.09
2019-05-23T12:30:22.689Z,31.58
2019-05-23T12:33:29.833Z,30.37
2019-05-23T12:36:37.423Z,30.88
2019-05-23T12:39:44.309Z,31.71
2019-05-23T12:42:51.247Z,31.90
2019-05-23T12:45:58.024Z,33.74
2019-05-23T12:49:28.449Z,33.32
2019-05-23T12:52:36.447Z,34.43
2019-05-23T12:55:43.376Z,35.27
2019-05-23T12:58:50.558Z,31.59
2019-05-23T13:01:58.816Z,32.90
2019-05-23T13:05:07.708Z,33.54
2019-05-23T13:08:14.991Z,32.46
2019-05-23T13:11:21.833Z,32.46
2019-05-23T13:14:29.089Z,35.68
2019-05-23T13:17:36.222Z,33.30
2019-05-23T13:20:44.174Z,31.87
2019-05-23T13:23:51.674Z,32.82
2019-05-23T13:27:00.847Z,31.45
2019-05-23T13:30:07.816Z,31.45
2019-05-23T13:33:16.245Z,32.45
2019-05-23T13:36:23.618Z,34.47
2019-05-23T13:39:30.522Z,36.25
2019-05-23T13:42:37.870Z,33.74
2019-05-23T13:45:45.082Z,36.36
2019-05-23T13:48:51.982Z,36.13
2019-05-23T13:52:00.254Z,35.63
2019-05-23T13:55:07.585Z,36.22
2019-05-23T13:58:15.278Z,35.85
2019-05-23T14:01:23.793Z,35.81
2019-05-23T14:04:31.463Z,35.52
2019-05-23T14:07:38.678Z,35.46
2019-05-23T14:10:45.523Z,32.19
2019-05-23T14:13:59.545Z,32.19
2019-05-23T14:17:25.263Z,31.15
2019-05-23T14:20:32.731Z,33.26
2019-05-23T14:23:39.476Z,32.13
2019-05-23T14:26:55.011Z,30.37
2019-05-23T14:30:12.072Z,30.37
2019-05-23T14:33:32.338Z,31.70
2019-05-23T14:36:47.542Z,34.40
2019-05-23T14:40:04.840Z,32.85
2019-05-23T14:43:19.543Z,32.83
2019-05-23T14:46:29.675Z,31.97
2019-05-23T14:49:43.342Z,32.24
2019-05-23T14:52:50.511Z,32.24
2019-05-23T14:55:57.477Z,32.45
2019-05-23T14:59:04.484Z,34.02
2019-05-23T15:02:16.605Z,34.14
2019-05-23T15:05:23.429Z,34.02
2019-05-23T15:08:47.532Z,33.42
2019-05-23T15:11:39.635Z,33.86
2019-05-23T15:14:49.286Z,32.24
2019-05-23T15:17:56.863Z,33.69
2019-05-23T15:21:03.968Z,33.32
2019-05-23T15:24:12.703Z,31.59
2019-05-23T15:27:21.436Z,29.35
2019-05-23T15:30:28.523Z,29.35
2019-05-23T15:33:36.268Z,30.38
2019-05-23T15:36:43.251Z,32.43
2019-05-23T15:39:50.279Z,31.66
2019-05-23T15:42:57.349Z,32.74
2019-05-23T15:46:04.483Z,33.85
2019-05-23T15:49:12.361Z,31.80
2019-05-23T15:52:29.572Z,30.00
2019-05-23T15:56:16.819Z,32.08
2019-05-23T15:59:20.261Z,31.64
2019-05-23T16:02:46.227Z,30.79
2019-05-23T16:05:54.549Z,30.56
2019-05-23T16:09:02.147Z,31.46
2019-05-23T16:12:09.614Z,31.09
2019-05-23T16:15:16.659Z,30.90
2019-05-23T16:18:23.816Z,31.59
2019-05-23T16:21:31.329Z,31.59
2019-05-23T16:24:40.312Z,30.61
2019-05-23T16:27:47.517Z,31.76
2019-05-23T16:30:54.533Z,31.66
2019-05-23T16:34:01.486Z,31.05
2019-05-23T16:37:08.396Z,31.41
2019-05-23T16:40:16.424Z,30.62
2019-05-23T16:43:25.302Z,29.04
2019-05-23T16:46:34.464Z,28.52
2019-05-23T16:49:41.439Z,29.49
2019-05-23T16:52:48.830Z,29.60
2019-05-23T16:57:00.275Z,29.29
2019-05-23T17:00:26.070Z,30.64
2019-05-23T17:03:52.287Z,31.23
2019-05-23T17:07:25.271Z,29.47
2019-05-23T17:10:57.389Z,31.14
2019-05-23T17:14:22.239Z,30.65
2019-05-23T17:18:00.740Z,30.09
2019-05-23T17:20:58.463Z,31.36
2019-05-23T17:24:24.697Z,31.07
2019-05-23T17:27:50.459Z,29.87
2019-05-23T17:31:06.515Z,30.84
2019-05-23T17:34:13.558Z,30.18
2019-05-23T17:37:23.896Z,30.44
2019-05-23T17:40:31.585Z,29.27
2019-05-23T17:43:38.613Z,30.08
2019-05-23T17:46:46.003Z,29.64
2019-05-23T17:49:53.712Z,28.32
2019-05-23T17:53:00.541Z,28.46
2019-05-23T17:56:07.726Z,28.46
2019-05-23T17:59:14.766Z,28.74
2019-05-23T18:02:22.071Z,28.22
2019-05-23T18:05:31.596Z,28.22
2019-05-23T18:08:40.266Z,28.00
2019-05-23T18:11:47.975Z,28.46
2019-05-23T18:14:55.082Z,28.44
2019-05-23T18:18:02.373Z,27.56
2019-05-23T18:21:12.353Z,28.00
2019-05-23T18:24:19.998Z,26.46
2019-05-23T18:27:27.007Z,26.46
2019-05-23T18:30:42.270Z,26.41
2019-05-23T18:33:50.395Z,26.52
2019-05-23T18:36:57.348Z,26.39
2019-05-23T18:40:05.442Z,27.86
2019-05-23T18:43:14.334Z,27.33
2019-05-23T18:46:28.005Z,25.29
2019-05-23T18:49:40.607Z,27.31
2019-05-23T18:52:51.877Z,27.59
2019-05-23T18:55:59.861Z,26.86
2019-05-23T18:59:09.270Z,25.81
2019-05-23T19:02:17.261Z,25.86
2019-05-23T19:05:27.491Z,26.30
2019-05-23T19:08:34.252Z,24.95
2019-05-23T19:11:42.106Z,24.44
2019-05-23T19:14:52.036Z,24.56
2019-05-23T19:18:00.265Z,25.07
2019-05-23T19:21:08.440Z,25.86
2019-05-23T19:24:17.261Z,25.86
2019-05-23T19:27:25.680Z,25.86
2019-05-23T19:30:33.467Z,23.19
2019-05-23T19:33:45.647Z,23.69
2019-05-23T19:36:52.853Z,24.71
2019-05-23T19:40:00.079Z,24.85
2019-05-23T19:43:07.240Z,24.37
2019-05-23T19:46:16.271Z,24.68
2019-05-23T19:49:27.241Z,24.59
2019-05-23T19:52:32.853Z,24.24
2019-05-23T19:55:40.857Z,24.24
2019-05-23T19:58:48.869Z,24.07
2019-05-23T20:02:14.260Z,23.36
2019-05-23T20:05:32.029Z,23.46
2019-05-23T20:08:40.674Z,23.82
2019-05-23T20:11:54.615Z,23.41
2019-05-23T20:14:56.099Z,23.41
2019-05-23T20:18:03.810Z,23.42
2019-05-23T20:21:10.496Z,22.90
2019-05-23T20:24:18.271Z,22.90
2019-05-23T20:27:25.637Z,22.83
2019-05-23T20:31:05.244Z,22.88
2019-05-23T20:34:12.560Z,22.77
2019-05-23T20:37:20.556Z,21.99
2019-05-23T20:40:27.915Z,22.13
2019-05-23T20:43:35.749Z,22.29
2019-05-23T20:46:44.246Z,21.91
2019-05-23T20:49:52.623Z,21.91
2019-05-23T20:52:59.833Z,21.96
2019-05-23T20:56:07.037Z,21.50
2019-05-23T20:59:13.878Z,21.75
2019-05-23T21:02:20.604Z,21.99
2019-05-23T21:05:27.785Z,21.14
2019-05-23T21:08:34.466Z,21.49
2019-05-23T21:11:41.481Z,21.49
2019-05-23T21:14:48.459Z,21.53
2019-05-23T21:17:55.306Z,21.36
2019-05-23T21:21:02.264Z,21.60
2019-05-23T21:24:09.327Z,21.41
2019-05-23T21:27:17.301Z,21.62
2019-05-23T21:30:24.266Z,21.43
2019-05-23T21:33:32.035Z,21.34
2019-05-23T21:36:41.032Z,21.50
2019-05-23T21:39:47.974Z,21.42
2019-05-23T21:42:54.844Z,21.32
2019-05-23T21:46:04.347Z,21.30
2019-05-23T21:49:11.382Z,21.22
2019-05-23T21:52:18.361Z,21.10
2019-05-23T21:55:37.027Z,21.02
2019-05-23T21:58:43.856Z,20.40
2019-05-23T22:02:00.242Z,20.64
2019-05-23T22:05:12.267Z,20.55
2019-05-23T22:08:19.265Z,20.64
2019-05-23T22:11:26.302Z,20.55
2019-05-23T22:14:33.921Z,20.41
2019-05-23T22:17:40.490Z,20.41
2019-05-23T22:20:47.328Z,20.46
2019-05-23T22:23:54.311Z,20.24
2019-05-23T22:27:02.089Z,20.26
2019-05-23T22:30:08.934Z,19.73
2019-05-23T22:33:17.321Z,19.97
2019-05-23T22:36:24.453Z,20.08
2019-05-23T22:39:31.508Z,19.90
2019-05-23T22:42:39.461Z,19.78
2019-05-23T22:45:46.720Z,19.96
2019-05-23T22:48:53.543Z,19.81
2019-05-23T22:52:00.354Z,19.81
2019-05-23T22:55:07.323Z,19.97
2019-05-23T22:58:14.362Z,19.88
2019-05-23T23:01:22.842Z,19.71
2019-05-23T23:04:29.835Z,19.61
2019-05-23T23:07:37.100Z,19.59
2019-05-23T23:10:44.119Z,19.72
2019-05-23T23:13:50.960Z,19.58
2019-05-23T23:16:57.573Z,19.47
2019-05-23T23:20:05.018Z,19.49
2019-05-23T23:23:11.811Z,19.50
2019-05-23T23:26:18.676Z,19.44
2019-05-23T23:29:27.364Z,19.46
2019-05-23T23:32:34.283Z,19.43
2019-05-23T23:35:42.252Z,19.08
2019-05-23T23:38:49.251Z,19.06
2019-05-23T23:41:56.252Z,18.72
2019-05-23T23:45:20.840Z,19.01
2019-05-23T23:48:45.670Z,19.00
2019-05-23T23:52:10.263Z,18.82
2019-05-23T23:55:34.922Z,18.84
2019-05-23T23:58:40.446Z,18.94
